sensor_id;sensor_type;location;lat;lon;timestamp;temperature;humidity
31729;DHT22;18309;43.658;1.312;2023-10-13T00:00:34;17.70;99.90
31729;DHT22;18309;43.658;1.312;2023-10-13T00:03:03;17.70;99.90
31729;DHT22;18309;43.658;1.312;2023-10-13T00:05:29;17.70;99.90
31729;DHT22;18309;43.658;1.312;2023-10-13T00:08:03;17.70;99.90
31729;DHT22;18309;43.658;1.312;2023-10-13T00:10:32;17.60;99.90
31729;DHT22;18309;43.658;1.312;2023-10-13T00:12:59;17.50;99.90
31729;DHT22;18309;43.658;1.312;2023-10-13T00:15:44;17.50;99.90
31729;DHT22;18309;43.658;1.312;2023-10-13T00:18:30;17.40;99.90
31729;DHT22;18309;43.658;1.312;2023-10-13T00:21:10;17.40;99.90
31729;DHT22;18309;43.658;1.312;2023-10-13T00:23:39;17.30;99.90
31729;DHT22;18309;43.658;1.312;2023-10-13T00:26:15;17.30;99.90
31729;DHT22;18309;43.658;1.312;2023-10-13T00:28:44;17.30;99.90
31729;DHT22;18309;43.658;1.312;2023-10-13T00:31:12;17.30;99.90
31729;DHT22;18309;43.658;1.312;2023-10-13T00:33:40;17.20;99.90
31729;DHT22;18309;43.658;1.312;2023-10-13T00:36:12;17.20;99.90
31729;DHT22;18309;43.658;1.312;2023-10-13T00:38:45;17.20;99.90
31729;DHT22;18309;43.658;1.312;2023-10-13T00:41:15;17.20;99.90
31729;DHT22;18309;43.658;1.312;2023-10-13T00:43:46;17.20;99.90
31729;DHT22;18309;43.658;1.312;2023-10-13T00:46:32;17.20;99.90
31729;DHT22;18309;43.658;1.312;2023-10-13T00:49:01;17.10;99.90
31729;DHT22;18309;43.658;1.312;2023-10-13T00:51:27;17.10;99.90
31729;DHT22;18309;43.658;1.312;2023-10-13T00:54:07;17.10;99.90
31729;DHT22;18309;43.658;1.312;2023-10-13T00:56:34;17.10;99.90
31729;DHT22;18309;43.658;1.312;2023-10-13T00:59:06;17.10;99.90
31729;DHT22;18309;43.658;1.312;2023-10-13T01:01:35;17.10;99.90
31729;DHT22;18309;43.658;1.312;2023-10-13T01:04:02;17.00;99.90
31729;DHT22;18309;43.658;1.312;2023-10-13T01:06:32;17.00;99.90
31729;DHT22;18309;43.658;1.312;2023-10-13T01:09:06;17.00;99.90
31729;DHT22;18309;43.658;1.312;2023-10-13T01:11:49;17.00;99.90
31729;DHT22;18309;43.658;1.312;2023-10-13T01:14:21;17.00;99.90
31729;DHT22;18309;43.658;1.312;2023-10-13T01:16:49;17.00;99.90
31729;DHT22;18309;43.658;1.312;2023-10-13T01:19:18;16.90;99.90
31729;DHT22;18309;43.658;1.312;2023-10-13T01:21:51;16.90;99.90
31729;DHT22;18309;43.658;1.312;2023-10-13T01:24:22;16.90;99.90
31729;DHT22;18309;43.658;1.312;2023-10-13T01:26:50;16.90;99.90
31729;DHT22;18309;43.658;1.312;2023-10-13T01:29:19;16.90;99.90
31729;DHT22;18309;43.658;1.312;2023-10-13T01:31:46;16.80;99.90
31729;DHT22;18309;43.658;1.312;2023-10-13T01:34:19;16.80;99.90
31729;DHT22;18309;43.658;1.312;2023-10-13T01:36:51;16.70;99.90
31729;DHT22;18309;43.658;1.312;2023-10-13T01:39:22;16.70;99.90
31729;DHT22;18309;43.658;1.312;2023-10-13T01:41:55;16.70;99.90
31729;DHT22;18309;43.658;1.312;2023-10-13T01:44:22;16.70;99.90
31729;DHT22;18309;43.658;1.312;2023-10-13T01:46:49;16.70;99.90
31729;DHT22;18309;43.658;1.312;2023-10-13T01:49:16;16.70;99.90
31729;DHT22;18309;43.658;1.312;2023-10-13T01:51:42;16.60;99.90
31729;DHT22;18309;43.658;1.312;2023-10-13T01:54:09;16.60;99.90
31729;DHT22;18309;43.658;1.312;2023-10-13T01:56:41;16.50;99.90
31729;DHT22;18309;43.658;1.312;2023-10-13T01:59:13;16.50;99.90
31729;DHT22;18309;43.658;1.312;2023-10-13T02:01:39;16.50;99.90
31729;DHT22;18309;43.658;1.312;2023-10-13T02:04:09;16.50;99.90
31729;DHT22;18309;43.658;1.312;2023-10-13T02:06:36;16.40;99.90
31729;DHT22;18309;43.658;1.312;2023-10-13T02:09:09;16.40;99.90
31729;DHT22;18309;43.658;1.312;2023-10-13T02:11:41;16.40;99.90
31729;DHT22;18309;43.658;1.312;2023-10-13T02:14:07;16.40;99.90
31729;DHT22;18309;43.658;1.312;2023-10-13T02:16:36;16.40;99.90
31729;DHT22;18309;43.658;1.312;2023-10-13T02:19:02;16.40;99.90
31729;DHT22;18309;43.658;1.312;2023-10-13T02:21:32;16.40;99.90
31729;DHT22;18309;43.658;1.312;2023-10-13T02:24:00;16.40;99.90
31729;DHT22;18309;43.658;1.312;2023-10-13T02:26:30;16.40;99.90
31729;DHT22;18309;43.658;1.312;2023-10-13T02:29:05;16.40;99.90
31729;DHT22;18309;43.658;1.312;2023-10-13T02:31:37;16.40;99.90
31729;DHT22;18309;43.658;1.312;2023-10-13T02:34:04;16.40;99.90
31729;DHT22;18309;43.658;1.312;2023-10-13T02:36:35;16.50;99.90
31729;DHT22;18309;43.658;1.312;2023-10-13T02:39:03;16.50;99.90
31729;DHT22;18309;43.658;1.312;2023-10-13T02:41:33;16.40;99.90
31729;DHT22;18309;43.658;1.312;2023-10-13T02:44:03;16.40;99.90
31729;DHT22;18309;43.658;1.312;2023-10-13T02:46:35;16.40;99.90
31729;DHT22;18309;43.658;1.312;2023-10-13T02:49:05;16.40;99.90
31729;DHT22;18309;43.658;1.312;2023-10-13T02:51:40;16.40;99.90
31729;DHT22;18309;43.658;1.312;2023-10-13T02:54:08;16.40;99.90
31729;DHT22;18309;43.658;1.312;2023-10-13T02:56:39;16.40;99.90
31729;DHT22;18309;43.658;1.312;2023-10-13T02:59:15;16.40;99.90
31729;DHT22;18309;43.658;1.312;2023-10-13T03:01:46;16.40;99.90
31729;DHT22;18309;43.658;1.312;2023-10-13T03:04:17;16.40;99.90
31729;DHT22;18309;43.658;1.312;2023-10-13T03:06:51;16.40;99.90
31729;DHT22;18309;43.658;1.312;2023-10-13T03:09:17;16.40;99.90
31729;DHT22;18309;43.658;1.312;2023-10-13T03:11:50;16.40;99.90
31729;DHT22;18309;43.658;1.312;2023-10-13T03:16:56;16.30;99.90
31729;DHT22;18309;43.658;1.312;2023-10-13T03:19:28;16.40;99.90
31729;DHT22;18309;43.658;1.312;2023-10-13T03:21:59;16.40;99.90
31729;DHT22;18309;43.658;1.312;2023-10-13T03:24:32;16.30;99.90
31729;DHT22;18309;43.658;1.312;2023-10-13T03:27:02;16.40;99.90
31729;DHT22;18309;43.658;1.312;2023-10-13T03:29:38;16.30;99.90
31729;DHT22;18309;43.658;1.312;2023-10-13T03:32:15;16.40;99.90
31729;DHT22;18309;43.658;1.312;2023-10-13T03:34:45;16.40;99.90
31729;DHT22;18309;43.658;1.312;2023-10-13T03:37:31;16.40;99.90
31729;DHT22;18309;43.658;1.312;2023-10-13T03:40:04;16.40;99.90
31729;DHT22;18309;43.658;1.312;2023-10-13T03:42:59;16.40;99.90
31729;DHT22;18309;43.658;1.312;2023-10-13T03:45:35;16.40;99.90
31729;DHT22;18309;43.658;1.312;2023-10-13T03:48:30;16.40;99.90
31729;DHT22;18309;43.658;1.312;2023-10-13T03:51:01;16.50;99.90
31729;DHT22;18309;43.658;1.312;2023-10-13T03:53:35;16.40;99.90
31729;DHT22;18309;43.658;1.312;2023-10-13T03:56:02;16.40;99.90
31729;DHT22;18309;43.658;1.312;2023-10-13T03:58:37;16.40;99.90
31729;DHT22;18309;43.658;1.312;2023-10-13T04:01:04;16.40;99.90
31729;DHT22;18309;43.658;1.312;2023-10-13T04:03:31;16.40;99.90
31729;DHT22;18309;43.658;1.312;2023-10-13T04:06:24;16.50;99.90
31729;DHT22;18309;43.658;1.312;2023-10-13T04:09:16;16.50;99.90
31729;DHT22;18309;43.658;1.312;2023-10-13T04:11:48;16.40;99.90
31729;DHT22;18309;43.658;1.312;2023-10-13T04:14:29;16.40;99.90
31729;DHT22;18309;43.658;1.312;2023-10-13T04:17:14;16.40;99.90
31729;DHT22;18309;43.658;1.312;2023-10-13T04:19:43;16.40;99.90
31729;DHT22;18309;43.658;1.312;2023-10-13T04:22:27;16.40;99.90
31729;DHT22;18309;43.658;1.312;2023-10-13T04:25:15;16.50;99.90
31729;DHT22;18309;43.658;1.312;2023-10-13T04:28:00;16.50;99.90
31729;DHT22;18309;43.658;1.312;2023-10-13T04:30:43;16.40;99.90
31729;DHT22;18309;43.658;1.312;2023-10-13T04:33:18;16.50;99.90
31729;DHT22;18309;43.658;1.312;2023-10-13T04:36:14;16.40;99.90
31729;DHT22;18309;43.658;1.312;2023-10-13T04:38:45;16.40;99.90
31729;DHT22;18309;43.658;1.312;2023-10-13T04:41:41;16.50;99.90
31729;DHT22;18309;43.658;1.312;2023-10-13T04:44:07;16.40;99.90
31729;DHT22;18309;43.658;1.312;2023-10-13T04:46:51;16.40;99.90
31729;DHT22;18309;43.658;1.312;2023-10-13T04:49:19;16.40;99.90
31729;DHT22;18309;43.658;1.312;2023-10-13T04:51:55;16.40;99.90
31729;DHT22;18309;43.658;1.312;2023-10-13T04:54:28;16.40;99.90
31729;DHT22;18309;43.658;1.312;2023-10-13T04:57:19;16.30;99.90
31729;DHT22;18309;43.658;1.312;2023-10-13T04:59:48;16.30;99.90
31729;DHT22;18309;43.658;1.312;2023-10-13T05:02:33;16.30;99.90
31729;DHT22;18309;43.658;1.312;2023-10-13T05:05:14;16.30;99.90
31729;DHT22;18309;43.658;1.312;2023-10-13T05:07:43;16.30;99.90
31729;DHT22;18309;43.658;1.312;2023-10-13T05:10:31;16.30;99.90
31729;DHT22;18309;43.658;1.312;2023-10-13T05:13:15;16.30;99.90
31729;DHT22;18309;43.658;1.312;2023-10-13T05:16:00;16.30;99.90
31729;DHT22;18309;43.658;1.312;2023-10-13T05:18:44;16.30;99.90
31729;DHT22;18309;43.658;1.312;2023-10-13T05:21:29;16.30;99.90
31729;DHT22;18309;43.658;1.312;2023-10-13T05:24:13;16.30;99.90
31729;DHT22;18309;43.658;1.312;2023-10-13T05:26:59;16.30;99.90
31729;DHT22;18309;43.658;1.312;2023-10-13T05:29:46;16.40;99.90
31729;DHT22;18309;43.658;1.312;2023-10-13T05:32:31;16.40;99.90
31729;DHT22;18309;43.658;1.312;2023-10-13T05:35:16;16.50;99.90
31729;DHT22;18309;43.658;1.312;2023-10-13T05:38:00;16.50;99.90
31729;DHT22;18309;43.658;1.312;2023-10-13T05:43:38;16.50;99.90
31729;DHT22;18309;43.658;1.312;2023-10-13T05:46:33;16.50;99.90
31729;DHT22;18309;43.658;1.312;2023-10-13T05:49:06;16.50;99.90
31729;DHT22;18309;43.658;1.312;2023-10-13T05:51:35;16.50;99.90
31729;DHT22;18309;43.658;1.312;2023-10-13T05:54:02;16.60;99.90
31729;DHT22;18309;43.658;1.312;2023-10-13T05:59:31;16.70;99.90
31729;DHT22;18309;43.658;1.312;2023-10-13T06:02:18;16.60;99.90
31729;DHT22;18309;43.658;1.312;2023-10-13T06:05:12;16.70;99.90
31729;DHT22;18309;43.658;1.312;2023-10-13T06:07:57;16.70;99.90
31729;DHT22;18309;43.658;1.312;2023-10-13T06:10:42;16.80;99.90
31729;DHT22;18309;43.658;1.312;2023-10-13T06:13:27;16.90;99.90
31729;DHT22;18309;43.658;1.312;2023-10-13T06:16:13;17.10;99.90
31729;DHT22;18309;43.658;1.312;2023-10-13T06:18:59;17.20;99.90
31729;DHT22;18309;43.658;1.312;2023-10-13T06:21:43;17.40;99.90
31729;DHT22;18309;43.658;1.312;2023-10-13T06:24:29;17.40;99.90
31729;DHT22;18309;43.658;1.312;2023-10-13T06:27:15;17.40;99.90
31729;DHT22;18309;43.658;1.312;2023-10-13T06:29:59;17.50;99.90
31729;DHT22;18309;43.658;1.312;2023-10-13T06:32:27;17.60;99.90
31729;DHT22;18309;43.658;1.312;2023-10-13T06:34:53;17.60;99.90
31729;DHT22;18309;43.658;1.312;2023-10-13T06:37:24;17.80;99.90
31729;DHT22;18309;43.658;1.312;2023-10-13T06:40:02;17.90;99.90
31729;DHT22;18309;43.658;1.312;2023-10-13T06:42:50;18.00;99.90
31729;DHT22;18309;43.658;1.312;2023-10-13T06:45:18;18.00;99.90
31729;DHT22;18309;43.658;1.312;2023-10-13T06:47:46;18.10;99.90
31729;DHT22;18309;43.658;1.312;2023-10-13T06:50:18;18.20;99.90
31729;DHT22;18309;43.658;1.312;2023-10-13T06:52:50;18.30;99.90
31729;DHT22;18309;43.658;1.312;2023-10-13T06:55:18;18.40;99.90
31729;DHT22;18309;43.658;1.312;2023-10-13T06:57:49;18.40;99.90
31729;DHT22;18309;43.658;1.312;2023-10-13T07:00:17;18.60;99.90
31729;DHT22;18309;43.658;1.312;2023-10-13T07:02:53;18.70;99.90
31729;DHT22;18309;43.658;1.312;2023-10-13T07:05:19;18.90;99.90
31729;DHT22;18309;43.658;1.312;2023-10-13T07:07:45;18.90;99.90
31729;DHT22;18309;43.658;1.312;2023-10-13T07:10:12;19.00;99.90
31729;DHT22;18309;43.658;1.312;2023-10-13T07:12:40;19.10;99.90
31729;DHT22;18309;43.658;1.312;2023-10-13T07:15:10;19.30;99.90
31729;DHT22;18309;43.658;1.312;2023-10-13T07:17:42;19.30;99.90
31729;DHT22;18309;43.658;1.312;2023-10-13T07:20:10;19.40;99.90
31729;DHT22;18309;43.658;1.312;2023-10-13T07:22:54;19.50;99.90
31729;DHT22;18309;43.658;1.312;2023-10-13T07:25:29;19.60;99.90
31729;DHT22;18309;43.658;1.312;2023-10-13T07:27:59;19.60;99.90
31729;DHT22;18309;43.658;1.312;2023-10-13T07:30:26;19.70;99.90
31729;DHT22;18309;43.658;1.312;2023-10-13T07:32:53;19.70;99.90
31729;DHT22;18309;43.658;1.312;2023-10-13T07:35:20;19.70;99.90
31729;DHT22;18309;43.658;1.312;2023-10-13T07:37:50;19.80;99.90
31729;DHT22;18309;43.658;1.312;2023-10-13T07:40:25;19.80;99.90
31729;DHT22;18309;43.658;1.312;2023-10-13T07:42:51;20.00;99.90
31729;DHT22;18309;43.658;1.312;2023-10-13T07:45:17;20.10;99.90
31729;DHT22;18309;43.658;1.312;2023-10-13T07:47:53;20.20;99.90
31729;DHT22;18309;43.658;1.312;2023-10-13T07:50:19;20.20;99.90
31729;DHT22;18309;43.658;1.312;2023-10-13T07:52:53;20.40;99.90
31729;DHT22;18309;43.658;1.312;2023-10-13T07:55:33;20.40;99.90
31729;DHT22;18309;43.658;1.312;2023-10-13T07:58:00;20.30;99.90
31729;DHT22;18309;43.658;1.312;2023-10-13T08:00:33;20.50;99.90
31729;DHT22;18309;43.658;1.312;2023-10-13T08:03:11;20.50;99.90
31729;DHT22;18309;43.658;1.312;2023-10-13T08:05:52;20.50;99.90
31729;DHT22;18309;43.658;1.312;2023-10-13T08:08:33;20.70;99.90
31729;DHT22;18309;43.658;1.312;2023-10-13T08:11:13;20.90;99.90
31729;DHT22;18309;43.658;1.312;2023-10-13T08:13:51;21.00;99.90
31729;DHT22;18309;43.658;1.312;2023-10-13T08:16:22;21.20;99.90
31729;DHT22;18309;43.658;1.312;2023-10-13T08:18:51;21.50;99.90
31729;DHT22;18309;43.658;1.312;2023-10-13T08:21:19;21.70;99.90
31729;DHT22;18309;43.658;1.312;2023-10-13T08:23:53;21.70;99.90
31729;DHT22;18309;43.658;1.312;2023-10-13T08:26:20;22.00;99.90
31729;DHT22;18309;43.658;1.312;2023-10-13T08:29:04;22.10;99.90
31729;DHT22;18309;43.658;1.312;2023-10-13T08:31:49;22.10;99.90
31729;DHT22;18309;43.658;1.312;2023-10-13T08:34:47;22.20;99.90
31729;DHT22;18309;43.658;1.312;2023-10-13T08:37:13;22.10;99.90
31729;DHT22;18309;43.658;1.312;2023-10-13T08:39:45;22.20;99.90
31729;DHT22;18309;43.658;1.312;2023-10-13T08:42:32;22.40;99.90
31729;DHT22;18309;43.658;1.312;2023-10-13T08:45:21;22.50;99.90
31729;DHT22;18309;43.658;1.312;2023-10-13T08:48:00;22.50;99.90
31729;DHT22;18309;43.658;1.312;2023-10-13T08:50:48;22.60;99.90
31729;DHT22;18309;43.658;1.312;2023-10-13T08:56:10;23.10;99.90
31729;DHT22;18309;43.658;1.312;2023-10-13T08:58:41;23.10;99.90
31729;DHT22;18309;43.658;1.312;2023-10-13T09:01:20;23.00;99.90
31729;DHT22;18309;43.658;1.312;2023-10-13T09:04:08;23.00;99.90
31729;DHT22;18309;43.658;1.312;2023-10-13T09:07:03;23.10;99.90
31729;DHT22;18309;43.658;1.312;2023-10-13T09:09:47;23.10;99.90
31729;DHT22;18309;43.658;1.312;2023-10-13T09:12:29;23.10;99.90
31729;DHT22;18309;43.658;1.312;2023-10-13T09:15:00;23.20;99.90
31729;DHT22;18309;43.658;1.312;2023-10-13T09:17:46;23.20;99.90
31729;DHT22;18309;43.658;1.312;2023-10-13T09:20:15;23.50;99.90
31729;DHT22;18309;43.658;1.312;2023-10-13T09:22:48;23.70;99.90
31729;DHT22;18309;43.658;1.312;2023-10-13T09:25:33;23.90;99.90
31729;DHT22;18309;43.658;1.312;2023-10-13T09:28:00;24.30;99.90
31729;DHT22;18309;43.658;1.312;2023-10-13T09:30:27;24.50;99.90
31729;DHT22;18309;43.658;1.312;2023-10-13T09:33:03;24.80;99.90
31729;DHT22;18309;43.658;1.312;2023-10-13T09:35:52;24.80;99.90
31729;DHT22;18309;43.658;1.312;2023-10-13T09:38:19;25.20;99.90
31729;DHT22;18309;43.658;1.312;2023-10-13T09:40:46;25.60;99.90
31729;DHT22;18309;43.658;1.312;2023-10-13T09:43:17;26.00;99.90
31729;DHT22;18309;43.658;1.312;2023-10-13T09:45:46;26.20;99.90
31729;DHT22;18309;43.658;1.312;2023-10-13T09:48:38;26.20;99.90
31729;DHT22;18309;43.658;1.312;2023-10-13T09:51:18;25.80;99.90
31729;DHT22;18309;43.658;1.312;2023-10-13T09:54:19;25.70;99.90
31729;DHT22;18309;43.658;1.312;2023-10-13T09:56:57;25.80;99.90
31729;DHT22;18309;43.658;1.312;2023-10-13T09:59:46;26.00;99.90
31729;DHT22;18309;43.658;1.312;2023-10-13T10:02:24;25.90;99.90
31729;DHT22;18309;43.658;1.312;2023-10-13T10:04:59;26.00;99.90
31729;DHT22;18309;43.658;1.312;2023-10-13T10:07:57;26.10;99.90
31729;DHT22;18309;43.658;1.312;2023-10-13T10:10:47;26.00;99.90
31729;DHT22;18309;43.658;1.312;2023-10-13T10:13:47;26.00;99.90
31729;DHT22;18309;43.658;1.312;2023-10-13T10:16:29;26.10;99.90
31729;DHT22;18309;43.658;1.312;2023-10-13T10:19:01;26.20;99.90
31729;DHT22;18309;43.658;1.312;2023-10-13T10:21:37;26.50;99.90
31729;DHT22;18309;43.658;1.312;2023-10-13T10:24:24;26.60;99.90
31729;DHT22;18309;43.658;1.312;2023-10-13T10:26:56;26.80;99.90
31729;DHT22;18309;43.658;1.312;2023-10-13T10:29:22;26.90;99.80
31729;DHT22;18309;43.658;1.312;2023-10-13T10:31:49;27.10;99.50
31729;DHT22;18309;43.658;1.312;2023-10-13T10:34:16;26.90;99.10
31729;DHT22;18309;43.658;1.312;2023-10-13T10:36:53;26.80;99.20
31729;DHT22;18309;43.658;1.312;2023-10-13T10:39:19;26.80;99.10
31729;DHT22;18309;43.658;1.312;2023-10-13T10:41:47;26.60;99.10
31729;DHT22;18309;43.658;1.312;2023-10-13T10:44:19;26.10;99.90
31729;DHT22;18309;43.658;1.312;2023-10-13T10:47:10;25.90;99.80
31729;DHT22;18309;43.658;1.312;2023-10-13T10:49:39;26.10;99.50
31729;DHT22;18309;43.658;1.312;2023-10-13T10:52:10;26.40;99.10
31729;DHT22;18309;43.658;1.312;2023-10-13T10:54:44;26.60;98.80
31729;DHT22;18309;43.658;1.312;2023-10-13T10:57:11;26.80;98.80
31729;DHT22;18309;43.658;1.312;2023-10-13T10:59:38;27.10;97.40
31729;DHT22;18309;43.658;1.312;2023-10-13T11:02:05;27.30;96.90
31729;DHT22;18309;43.658;1.312;2023-10-13T11:04:32;27.40;96.70
31729;DHT22;18309;43.658;1.312;2023-10-13T11:07:07;27.30;96.30
31729;DHT22;18309;43.658;1.312;2023-10-13T11:09:34;27.40;96.20
31729;DHT22;18309;43.658;1.312;2023-10-13T11:14:32;28.50;94.60
31729;DHT22;18309;43.658;1.312;2023-10-13T11:16:59;28.70;94.00
31729;DHT22;18309;43.658;1.312;2023-10-13T11:19:42;28.70;93.40
31729;DHT22;18309;43.658;1.312;2023-10-13T11:22:15;29.30;92.50
31729;DHT22;18309;43.658;1.312;2023-10-13T11:25:02;29.40;92.00
31729;DHT22;18309;43.658;1.312;2023-10-13T11:27:41;29.60;91.30
31729;DHT22;18309;43.658;1.312;2023-10-13T11:30:19;29.80;90.60
31729;DHT22;18309;43.658;1.312;2023-10-13T11:33:10;30.10;90.80
31729;DHT22;18309;43.658;1.312;2023-10-13T11:35:38;30.60;90.10
31729;DHT22;18309;43.658;1.312;2023-10-13T11:38:36;30.70;89.80
31729;DHT22;18309;43.658;1.312;2023-10-13T11:41:07;30.90;89.00
31729;DHT22;18309;43.658;1.312;2023-10-13T11:43:39;31.00;87.90
31729;DHT22;18309;43.658;1.312;2023-10-13T11:46:11;30.40;86.50
31729;DHT22;18309;43.658;1.312;2023-10-13T11:48:38;30.10;86.70
31729;DHT22;18309;43.658;1.312;2023-10-13T11:51:08;29.80;88.40
31729;DHT22;18309;43.658;1.312;2023-10-13T11:53:35;29.60;88.20
31729;DHT22;18309;43.658;1.312;2023-10-13T11:56:03;29.90;87.10
31729;DHT22;18309;43.658;1.312;2023-10-13T11:58:40;30.20;86.50
31729;DHT22;18309;43.658;1.312;2023-10-13T12:01:06;30.50;85.40
31729;DHT22;18309;43.658;1.312;2023-10-13T12:03:41;31.20;84.40
31729;DHT22;18309;43.658;1.312;2023-10-13T12:06:26;32.00;82.80
31729;DHT22;18309;43.658;1.312;2023-10-13T12:09:05;35.00;75.80
31729;DHT22;18309;43.658;1.312;2023-10-13T12:11:47;37.40;69.90
31729;DHT22;18309;43.658;1.312;2023-10-13T12:14:28;39.20;64.50
31729;DHT22;18309;43.658;1.312;2023-10-13T12:16:55;40.30;59.50
31729;DHT22;18309;43.658;1.312;2023-10-13T12:19:23;39.40;59.70
31729;DHT22;18309;43.658;1.312;2023-10-13T12:21:50;39.90;59.80
31729;DHT22;18309;43.658;1.312;2023-10-13T12:24:20;43.50;56.40
31729;DHT22;18309;43.658;1.312;2023-10-13T12:27:04;45.00;52.80
31729;DHT22;18309;43.658;1.312;2023-10-13T12:29:53;42.10;54.20
31729;DHT22;18309;43.658;1.312;2023-10-13T12:32:23;39.20;57.60
31729;DHT22;18309;43.658;1.312;2023-10-13T12:34:56;37.80;59.60
31729;DHT22;18309;43.658;1.312;2023-10-13T12:37:40;37.20;63.20
31729;DHT22;18309;43.658;1.312;2023-10-13T12:40:14;37.20;60.80
31729;DHT22;18309;43.658;1.312;2023-10-13T12:42:58;37.30;60.30
31729;DHT22;18309;43.658;1.312;2023-10-13T12:45:43;38.10;58.40
31729;DHT22;18309;43.658;1.312;2023-10-13T12:48:30;39.60;57.80
31729;DHT22;18309;43.658;1.312;2023-10-13T12:51:16;40.60;55.70
31729;DHT22;18309;43.658;1.312;2023-10-13T12:53:49;38.90;58.30
31729;DHT22;18309;43.658;1.312;2023-10-13T12:56:15;38.70;57.80
31729;DHT22;18309;43.658;1.312;2023-10-13T12:58:42;41.30;53.90
31729;DHT22;18309;43.658;1.312;2023-10-13T13:01:20;40.50;55.10
31729;DHT22;18309;43.658;1.312;2023-10-13T13:03:47;43.40;52.00
31729;DHT22;18309;43.658;1.312;2023-10-13T13:06:19;44.90;50.40
31729;DHT22;18309;43.658;1.312;2023-10-13T13:08:58;45.60;48.90
31729;DHT22;18309;43.658;1.312;2023-10-13T13:11:35;47.10;46.90
31729;DHT22;18309;43.658;1.312;2023-10-13T13:14:06;46.10;47.30
31729;DHT22;18309;43.658;1.312;2023-10-13T13:16:36;44.40;48.90
31729;DHT22;18309;43.658;1.312;2023-10-13T13:19:05;43.20;50.70
31729;DHT22;18309;43.658;1.312;2023-10-13T13:21:39;44.80;49.60
31729;DHT22;18309;43.658;1.312;2023-10-13T13:24:06;47.40;46.70
31729;DHT22;18309;43.658;1.312;2023-10-13T13:26:39;48.00;44.90
31729;DHT22;18309;43.658;1.312;2023-10-13T13:29:06;46.40;46.00
31729;DHT22;18309;43.658;1.312;2023-10-13T13:31:34;47.70;45.20
31729;DHT22;18309;43.658;1.312;2023-10-13T13:34:07;45.90;46.40
31729;DHT22;18309;43.658;1.312;2023-10-13T13:36:35;44.40;48.80
31729;DHT22;18309;43.658;1.312;2023-10-13T13:39:01;46.00;47.00
31729;DHT22;18309;43.658;1.312;2023-10-13T13:41:29;46.00;46.20
31729;DHT22;18309;43.658;1.312;2023-10-13T13:43:58;44.80;47.30
31729;DHT22;18309;43.658;1.312;2023-10-13T13:46:38;44.20;46.60
31729;DHT22;18309;43.658;1.312;2023-10-13T13:49:07;46.40;44.80
31729;DHT22;18309;43.658;1.312;2023-10-13T13:51:43;44.60;45.20
31729;DHT22;18309;43.658;1.312;2023-10-13T13:54:09;42.60;49.10
31729;DHT22;18309;43.658;1.312;2023-10-13T13:56:35;43.30;48.60
31729;DHT22;18309;43.658;1.312;2023-10-13T13:59:04;45.80;45.40
31729;DHT22;18309;43.658;1.312;2023-10-13T14:01:35;48.30;43.70
31729;DHT22;18309;43.658;1.312;2023-10-13T14:04:03;49.20;41.80
31729;DHT22;18309;43.658;1.312;2023-10-13T14:06:32;49.80;42.00
31729;DHT22;18309;43.658;1.312;2023-10-13T14:09:00;49.70;41.70
31729;DHT22;18309;43.658;1.312;2023-10-13T14:11:30;49.80;40.80
31729;DHT22;18309;43.658;1.312;2023-10-13T14:14:12;50.50;40.90
31729;DHT22;18309;43.658;1.312;2023-10-13T14:16:42;47.70;42.30
31729;DHT22;18309;43.658;1.312;2023-10-13T14:19:16;47.10;43.80
31729;DHT22;18309;43.658;1.312;2023-10-13T14:21:55;47.80;41.70
31729;DHT22;18309;43.658;1.312;2023-10-13T14:24:23;48.00;41.50
31729;DHT22;18309;43.658;1.312;2023-10-13T14:27:00;48.80;43.20
31729;DHT22;18309;43.658;1.312;2023-10-13T14:29:35;48.90;41.40
31729;DHT22;18309;43.658;1.312;2023-10-13T14:32:11;49.20;40.60
31729;DHT22;18309;43.658;1.312;2023-10-13T14:34:46;48.90;40.30
31729;DHT22;18309;43.658;1.312;2023-10-13T14:37:22;49.30;41.60
31729;DHT22;18309;43.658;1.312;2023-10-13T14:39:57;49.10;40.20
31729;DHT22;18309;43.658;1.312;2023-10-13T14:42:29;48.60;40.10
31729;DHT22;18309;43.658;1.312;2023-10-13T14:45:00;48.40;39.90
31729;DHT22;18309;43.658;1.312;2023-10-13T14:47:26;48.10;40.20
31729;DHT22;18309;43.658;1.312;2023-10-13T14:49:53;47.50;40.50
31729;DHT22;18309;43.658;1.312;2023-10-13T14:52:21;47.20;41.00
31729;DHT22;18309;43.658;1.312;2023-10-13T14:54:47;46.90;41.10
31729;DHT22;18309;43.658;1.312;2023-10-13T14:57:21;46.50;41.60
31729;DHT22;18309;43.658;1.312;2023-10-13T14:59:53;46.10;42.60
31729;DHT22;18309;43.658;1.312;2023-10-13T15:02:19;45.50;44.00
31729;DHT22;18309;43.658;1.312;2023-10-13T15:04:47;46.10;43.20
31729;DHT22;18309;43.658;1.312;2023-10-13T15:07:16;45.80;43.40
31729;DHT22;18309;43.658;1.312;2023-10-13T15:09:44;45.10;43.60
31729;DHT22;18309;43.658;1.312;2023-10-13T15:12:10;45.10;44.00
31729;DHT22;18309;43.658;1.312;2023-10-13T15:14:40;45.10;43.80
31729;DHT22;18309;43.658;1.312;2023-10-13T15:17:09;45.20;43.80
31729;DHT22;18309;43.658;1.312;2023-10-13T15:19:38;45.10;44.10
31729;DHT22;18309;43.658;1.312;2023-10-13T15:22:08;44.50;44.70
31729;DHT22;18309;43.658;1.312;2023-10-13T15:24:50;44.00;44.70
31729;DHT22;18309;43.658;1.312;2023-10-13T15:27:35;44.10;45.20
31729;DHT22;18309;43.658;1.312;2023-10-13T15:30:07;43.70;45.20
31729;DHT22;18309;43.658;1.312;2023-10-13T15:32:45;43.50;45.70
31729;DHT22;18309;43.658;1.312;2023-10-13T15:35:11;43.20;45.80
31729;DHT22;18309;43.658;1.312;2023-10-13T15:37:41;42.50;46.80
31729;DHT22;18309;43.658;1.312;2023-10-13T15:40:13;42.20;47.10
31729;DHT22;18309;43.658;1.312;2023-10-13T15:42:44;42.00;47.50
31729;DHT22;18309;43.658;1.312;2023-10-13T15:45:13;41.20;48.60
31729;DHT22;18309;43.658;1.312;2023-10-13T15:47:46;38.20;52.40
31729;DHT22;18309;43.658;1.312;2023-10-13T15:50:17;35.40;57.40
31729;DHT22;18309;43.658;1.312;2023-10-13T15:52:47;33.60;60.70
31729;DHT22;18309;43.658;1.312;2023-10-13T15:55:18;32.40;64.00
31729;DHT22;18309;43.658;1.312;2023-10-13T15:57:44;31.60;66.10
31729;DHT22;18309;43.658;1.312;2023-10-13T16:00:11;31.10;67.50
31729;DHT22;18309;43.658;1.312;2023-10-13T16:02:56;30.70;68.80
31729;DHT22;18309;43.658;1.312;2023-10-13T16:05:31;30.40;70.00
31729;DHT22;18309;43.658;1.312;2023-10-13T16:08:01;29.80;72.00
31729;DHT22;18309;43.658;1.312;2023-10-13T16:10:29;29.40;73.20
31729;DHT22;18309;43.658;1.312;2023-10-13T16:12:54;29.00;74.60
31729;DHT22;18309;43.658;1.312;2023-10-13T16:15:23;28.70;74.80
31729;DHT22;18309;43.658;1.312;2023-10-13T16:17:49;28.30;75.70
31729;DHT22;18309;43.658;1.312;2023-10-13T16:20:19;27.90;77.30
31729;DHT22;18309;43.658;1.312;2023-10-13T16:22:47;27.50;78.20
31729;DHT22;18309;43.658;1.312;2023-10-13T16:25:14;27.40;78.90
31729;DHT22;18309;43.658;1.312;2023-10-13T16:27:42;27.20;79.90